CYDF

Deer Lake Airport

Deer Lake, Canada
METAR CYDF 172100Z 23011KT 210V290 12SM -SN SCT021 BKN032 M14/M19 A3009 RMK SC4SC3 PRESRR SLP193
Observed Flight Rules
Feb-17 @ 21:00 UTC (34 minutes ago) Visual Flight Rules
Wind Visibility Clouds Conditions
230° at 11 knots 12 miles
  • Scattered at 2,100' AGL
  • Broken at 3,200' AGL
  • Light Snow
Temperatures Readings
Current -14°C / 7°F
Dewpoint -19°C / -2°F
Humidity 66%
Altimeter 30.09" Hg
Pressure 1019.3 hPa
Elevation 22
METAR CYDF 172100Z 23011KT 210V290 12SM -SN SCT021 BKN032 M14/M19 A3009 RMK SC4SC3 PRESRR SLP193
Observed Flight Rules
Feb-17 @ 21:00 UTC
(34 minutes ago)
VFR
Wind Visibility
230° at 11 knots 12 miles
Clouds
  • Scattered at 2,100' AGL
  • Broken at 3,200' AGL
Conditions
  • Light Snow
Temperature Dewpoint
-14°C / 7°F -19°C / -2°F
Humidity Altimeter Pressure
66% 30.09" Hg 1019.3 hPa